Airfield :
LOGIN :

Register | Disclaimer

   EN    FR    IT 

 










Legend :    VFR   Marginal VFR   IFR   Intensive IFR   Very Intensive IFR
Visi :
Ceiling :
>= 8 km
>= 3000ft
5 to 8 km
1000 to 3000 ft
1500m to 5 km
500 to 1000 ft
800 to 1500m
200 to 500 ft
< 800m
< 200 ft
Symbols :   Thunderstorms  Fog  Heavy snow  Heavy precipitations  Wind > 20 kt
SIGMETs :     Misc.  Thunderstorms  Icing  Turbulence  Mountain Waves  Volcanic Ashes






- Airport Elevation : 1106 ft


LFSO - Nancy / Ochey

CURRENT METAR :
  • 282230Z AUTO 25023KT 9999 -RA BKN018/// BKN025/// OVC038/// ///TCU 04/02 Q1004 TEMPO 26015G25KT 2000 -SHRASN BKN008 BKN020CB

EXPIRED METARs :
  • 282200Z AUTO 22012KT 9999 -RA SCT020 BKN025 BKN031 02/01 Q1003 TEMPO 26020G35KT 2000 -SHRASN BKN008 BKN020CB
  • 282130Z AUTO 21008KT 7000 SN FEW009 SCT016 BKN022 01/00 Q1004 TEMPO 26020G35KT 2000 -SHRASN BKN008 BKN020CB
  • 282100Z AUTO 26008KT 220V290 4500 SN BR BKN008/// BKN013/// OVC019/// ///CB 01/00 Q1005 TEMPO 26020G35KT 2000 -SHRASN
  • 282030Z AUTO 22014KT 9999 -RA BKN013/// OVC020/// ///TCU 03/01 Q1005 TEMPO 26020G35KT 2000 -SHRASN BKN008 BKN020CB
  • 282000Z AUTO 21017G28KT 9999 SCT026 BKN045 BKN078 03/01 Q1005 TEMPO 3000 SHRAGS BKN008 BKN020CB
  • 281930Z AUTO 20011KT 9999 SCT037 SCT050 BKN140 02/01 Q1005 TEMPO 26020G35KT 3000 SHRAGS BKN008 BKN020CB

TAF TAF LFSO
Valid from the 28 at 21:00 until the 29 at 21:00 UTC


282000Z 2821/2921 20010KT 9999 BKN020
TEMPO 2821/2824 26020G35KT 2000 -SHRASN BKN008 BKN020CB
BECMG 2900/2902 26015KT
TEMPO 2900/2906 26015G25KT
BECMG 2900/2902 OVC012
TEMPO 2902/2912 4500 -RA BKN008 SCT015TCU
BECMG 2912/2914 BKN018 OVC025



MET'MAP, your aeronautical weather chart ! - Copyright ORBIFLY December 2007 - Disclaimer

ORBIFLY MET'MAP TEAM :

Programming & Development : Alexandra Zaïnal
Concept & original design : Baudouin d'Aumeries
Assistance for programming : Marc-Olivier Méhu
Technical & hardware support : Manuel Goepfert

Contact : metmap@orbifly.com




SOURCES & CREDITS :

   NOAA